Time;durP1;ratioP1;P1;durP2;ratioP2;P2;SDS_P1;SDS_P2;PMS_P1;PMS_P2;Temp;Humidity;BMP_temperature;BMP_pressure;BME280_temperature;BME280_humidity;BME280_pressure;Samples;Min_cycle;Max_cycle;Signal;HPM_P1;HPM_P2
2024/02/14 00:01:28;;;;;;;3.93;2.37;;;;;;;;;;5027835;28;20193;-55
2024/02/14 00:03:54;;;;;;;2.90;2.60;;;;;;;;;;5022700;28;20551;-55
2024/02/14 00:06:20;;;;;;;4.80;3.43;;;;;;;;;;5028312;28;20200;-55
2024/02/14 00:08:46;;;;;;;4.80;2.67;;;;;;;;;;5025594;28;20837;-55
2024/02/14 00:11:14;;;;;;;3.33;2.63;;;;;;;;;;5027203;28;20260;-55
2024/02/14 00:13:40;;;;;;;3.10;2.33;;;;;;;;;;5023763;28;20174;-55
2024/02/14 00:16:06;;;;;;;4.83;3.00;;;;;;;;;;5020817;28;20256;-55
2024/02/14 00:18:32;;;;;;;4.10;2.57;;;;;;;;;;5016185;28;20228;-55
2024/02/14 00:20:58;;;;;;;2.30;2.10;;;;;;;;;;5027104;28;20748;-55
2024/02/14 00:23:24;;;;;;;6.10;3.07;;;;;;;;;;5026261;28;20170;-55
2024/02/14 00:25:50;;;;;;;5.33;2.53;;;;;;;;;;5025080;28;20261;-55
2024/02/14 00:28:16;;;;;;;3.70;2.50;;;;;;;;;;5017154;28;20193;-55
2024/02/14 00:30:42;;;;;;;6.00;3.27;;;;;;;;;;5020474;28;20178;-55
2024/02/14 00:33:08;;;;;;;3.20;2.37;;;;;;;;;;5014601;28;20671;-55
2024/02/14 00:35:34;;;;;;;3.07;2.70;;;;;;;;;;5026928;28;20285;-55
2024/02/14 00:38:00;;;;;;;3.03;2.50;;;;;;;;;;5008885;28;20209;-55
2024/02/14 00:40:26;;;;;;;2.47;2.27;;;;;;;;;;5017543;28;20178;-55
2024/02/14 00:42:52;;;;;;;3.43;2.70;;;;;;;;;;5021529;28;20201;-55
2024/02/14 00:45:18;;;;;;;3.87;2.63;;;;;;;;;;5018707;28;20213;-55
2024/02/14 00:47:44;;;;;;;5.23;2.40;;;;;;;;;;5018775;28;20181;-55
2024/02/14 00:50:13;;;;;;;2.40;2.17;;;;;;;;;;5026837;28;20178;-55
2024/02/14 00:52:39;;;;;;;3.47;2.80;;;;;;;;;;5027460;28;20205;-54
2024/02/14 00:55:05;;;;;;;3.93;2.10;;;;;;;;;;5026367;28;20166;-55
2024/02/14 00:57:32;;;;;;;4.20;2.00;;;;;;;;;;5014224;28;20636;-55
2024/02/14 00:59:59;;;;;;;3.40;2.33;;;;;;;;;;5022727;28;20182;-55
2024/02/14 01:02:26;;;;;;;7.03;2.70;;;;;;;;;;5021323;28;20282;-55
2024/02/14 01:04:52;;;;;;;3.50;2.80;;;;;;;;;;5027494;28;20256;-55
2024/02/14 01:07:18;;;;;;;4.53;2.13;;;;;;;;;;5025012;28;20277;-54
2024/02/14 01:09:44;;;;;;;3.07;2.20;;;;;;;;;;5028180;28;20177;-54
2024/02/14 01:12:10;;;;;;;2.37;1.93;;;;;;;;;;5024380;28;20589;-55
2024/02/14 01:14:36;;;;;;;3.33;2.23;;;;;;;;;;5026914;28;20220;-55
2024/02/14 01:17:03;;;;;;;2.87;2.13;;;;;;;;;;5019651;28;20178;-55
2024/02/14 01:19:29;;;;;;;4.20;2.20;;;;;;;;;;5021611;28;20555;-55
2024/02/14 01:21:58;;;;;;;2.20;2.03;;;;;;;;;;5019835;28;20225;-54
2024/02/14 01:24:26;;;;;;;3.67;2.10;;;;;;;;;;5029378;28;20185;-55
2024/02/14 01:26:53;;;;;;;4.40;2.10;;;;;;;;;;5026857;28;20178;-55
2024/02/14 01:29:19;;;;;;;2.77;1.80;;;;;;;;;;5025797;28;20621;-55
2024/02/14 01:31:45;;;;;;;2.97;1.80;;;;;;;;;;5022098;28;20206;-55
2024/02/14 01:34:11;;;;;;;5.63;2.13;;;;;;;;;;5025641;28;20257;-55
2024/02/14 01:36:38;;;;;;;2.33;2.13;;;;;;;;;;5021099;28;20174;-54
2024/02/14 01:39:10;;;;;;;5.03;2.03;;;;;;;;;;5027501;28;20181;-54
2024/02/14 01:41:36;;;;;;;2.33;1.90;;;;;;;;;;5029884;28;20186;-55
2024/02/14 01:44:02;;;;;;;2.00;1.80;;;;;;;;;;5028015;28;20205;-55
2024/02/14 01:46:28;;;;;;;4.17;2.50;;;;;;;;;;5022542;28;20205;-55
2024/02/14 01:48:55;;;;;;;1.80;1.70;;;;;;;;;;5023395;28;20614;-54
2024/02/14 01:51:24;;;;;;;2.13;1.70;;;;;;;;;;5021741;28;20653;-54
2024/02/14 01:53:50;;;;;;;2.13;1.60;;;;;;;;;;5021106;28;20185;-54
2024/02/14 01:56:17;;;;;;;3.93;2.13;;;;;;;;;;5024210;28;20519;-55
2024/02/14 01:58:43;;;;;;;2.27;1.80;;;;;;;;;;5025858;28;20304;-55
2024/02/14 02:01:09;;;;;;;2.67;1.60;;;;;;;;;;5026165;28;20327;-55
2024/02/14 02:03:37;;;;;;;3.97;2.00;;;;;;;;;;5023038;28;20197;-54
2024/02/14 02:06:03;;;;;;;3.33;1.40;;;;;;;;;;5028222;28;20213;-55
2024/02/14 02:08:29;;;;;;;3.03;1.53;;;;;;;;;;5027018;28;20224;-54
2024/02/14 02:10:55;;;;;;;2.53;1.63;;;;;;;;;;5028058;28;20586;-55
2024/02/14 02:13:21;;;;;;;2.30;1.70;;;;;;;;;;5029549;28;20182;-54
2024/02/14 02:15:47;;;;;;;1.93;1.73;;;;;;;;;;5023458;28;20183;-55
2024/02/14 02:18:14;;;;;;;3.73;2.10;;;;;;;;;;5018378;28;20230;-55
2024/02/14 02:20:42;;;;;;;3.37;1.67;;;;;;;;;;5027896;28;20192;-54
2024/02/14 02:23:09;;;;;;;2.43;1.77;;;;;;;;;;5025291;28;20182;-55
2024/02/14 02:25:35;;;;;;;1.60;1.50;;;;;;;;;;5022959;28;20189;-55
2024/02/14 02:28:01;;;;;;;1.93;1.50;;;;;;;;;;5021138;28;20504;-55
2024/02/14 02:30:27;;;;;;;2.50;1.83;;;;;;;;;;5028108;28;20693;-55
2024/02/14 02:32:53;;;;;;;3.67;1.87;;;;;;;;;;5028708;28;20193;-55
2024/02/14 02:35:24;;;;;;;1.60;1.30;;;;;;;;;;5029425;28;20174;-55
2024/02/14 02:37:50;;;;;;;1.40;1.30;;;;;;;;;;5029799;28;20189;-54
2024/02/14 02:40:16;;;;;;;1.90;1.50;;;;;;;;;;5024024;28;20169;-55
2024/02/14 02:42:45;;;;;;;3.67;1.40;;;;;;;;;;5029600;28;20251;-55
2024/02/14 02:45:11;;;;;;;1.50;1.10;;;;;;;;;;5021088;28;20209;-54
2024/02/14 02:47:37;;;;;;;2.80;1.40;;;;;;;;;;5019938;28;20629;-55
2024/02/14 02:50:03;;;;;;;2.90;2.20;;;;;;;;;;5025559;28;20174;-55
2024/02/14 02:52:30;;;;;;;2.10;1.47;;;;;;;;;;5015815;28;20238;-54
2024/02/14 02:54:57;;;;;;;1.23;1.17;;;;;;;;;;5023905;28;20201;-59
2024/02/14 02:57:23;;;;;;;1.50;1.40;;;;;;;;;;5026645;28;20163;-54
2024/02/14 02:59:49;;;;;;;2.50;1.33;;;;;;;;;;5024177;28;20559;-54
2024/02/14 03:02:16;;;;;;;2.43;1.30;;;;;;;;;;5025730;28;20184;-54
2024/02/14 03:04:42;;;;;;;2.20;1.33;;;;;;;;;;5018627;28;20818;-55
2024/02/14 03:07:11;;;;;;;3.07;1.50;;;;;;;;;;5022540;28;20220;-54
2024/02/14 03:09:37;;;;;;;1.07;1.03;;;;;;;;;;5020951;28;20177;-54
2024/02/14 03:12:04;;;;;;;2.50;1.40;;;;;;;;;;5011472;28;20563;-54
2024/02/14 03:14:33;;;;;;;3.60;1.63;;;;;;;;;;5024045;28;20209;-54
2024/02/14 03:17:01;;;;;;;1.40;1.30;;;;;;;;;;5028395;28;20592;-60
2024/02/14 03:19:27;;;;;;;3.13;1.30;;;;;;;;;;5025967;28;20225;-58
2024/02/14 03:21:53;;;;;;;1.20;1.10;;;;;;;;;;5020527;28;20186;-59
2024/02/14 03:24:20;;;;;;;1.53;1.40;;;;;;;;;;5016073;28;20580;-60
2024/02/14 03:26:46;;;;;;;4.03;1.70;;;;;;;;;;5016797;28;20194;-59
2024/02/14 03:29:12;;;;;;;1.63;1.20;;;;;;;;;;5024943;28;20185;-58
2024/02/14 03:31:38;;;;;;;1.27;1.17;;;;;;;;;;5018678;28;20658;-60
2024/02/14 03:34:05;;;;;;;1.60;1.37;;;;;;;;;;5022851;28;20174;-59
2024/02/14 03:36:32;;;;;;;1.90;1.30;;;;;;;;;;5015668;28;20554;-58
2024/02/14 03:38:58;;;;;;;1.97;1.20;;;;;;;;;;5025979;28;20170;-59
2024/02/14 03:41:24;;;;;;;1.87;1.40;;;;;;;;;;5018603;28;20208;-60
2024/02/14 03:43:52;;;;;;;1.60;1.50;;;;;;;;;;5017535;28;20716;-60
2024/02/14 03:46:21;;;;;;;1.50;1.37;;;;;;;;;;5022911;28;20178;-60
2024/02/14 03:48:47;;;;;;;1.40;1.30;;;;;;;;;;5019122;28;20177;-56
2024/02/14 03:51:13;;;;;;;2.20;1.70;;;;;;;;;;5014873;28;20202;-59
2024/02/14 03:53:39;;;;;;;1.70;1.57;;;;;;;;;;5019017;28;20761;-58
2024/02/14 03:56:07;;;;;;;1.77;1.60;;;;;;;;;;5019031;28;20646;-60
2024/02/14 03:58:37;;;;;;;3.37;2.10;;;;;;;;;;5025357;28;20165;-57
2024/02/14 04:01:03;;;;;;;1.80;1.60;;;;;;;;;;5027292;28;20643;-58
2024/02/14 04:03:29;;;;;;;1.80;1.70;;;;;;;;;;5025904;28;20178;-59
2024/02/14 04:05:55;;;;;;;3.20;1.80;;;;;;;;;;5026793;28;20530;-60
2024/02/14 04:08:21;;;;;;;1.87;1.70;;;;;;;;;;5023648;28;20937;-59
2024/02/14 04:10:53;;;;;;;1.97;1.30;;;;;;;;;;5024474;28;20248;-58
2024/02/14 04:13:20;;;;;;;1.93;1.63;;;;;;;;;;5024021;28;20154;-60
2024/02/14 04:15:46;;;;;;;2.50;1.60;;;;;;;;;;5020483;28;20188;-61
2024/02/14 04:18:12;;;;;;;3.13;2.07;;;;;;;;;;5023392;28;20271;-60
2024/02/14 04:20:39;;;;;;;1.60;1.50;;;;;;;;;;5027465;28;20261;-60
2024/02/14 04:23:07;;;;;;;1.50;1.40;;;;;;;;;;5022209;28;20629;-60
2024/02/14 04:25:33;;;;;;;1.57;1.47;;;;;;;;;;5020429;28;20549;-58
2024/02/14 04:27:59;;;;;;;1.87;1.77;;;;;;;;;;5016625;28;20170;-55
2024/02/14 04:30:26;;;;;;;1.97;1.57;;;;;;;;;;5025243;28;20594;-54
2024/02/14 04:32:52;;;;;;;2.40;2.00;;;;;;;;;;5022190;28;20280;-54
2024/02/14 04:35:20;;;;;;;1.63;1.37;;;;;;;;;;5033705;28;20504;-54
2024/02/14 04:37:47;;;;;;;2.10;1.90;;;;;;;;;;5035158;28;20177;-54
2024/02/14 04:40:14;;;;;;;2.00;1.90;;;;;;;;;;5031682;28;20185;-54
2024/02/14 04:42:40;;;;;;;2.40;1.60;;;;;;;;;;5034082;28;20201;-54
2024/02/14 04:45:06;;;;;;;1.80;1.67;;;;;;;;;;5032917;28;20190;-55
2024/02/14 04:47:33;;;;;;;2.77;1.60;;;;;;;;;;5034756;28;20185;-54
2024/02/14 04:49:59;;;;;;;1.57;1.40;;;;;;;;;;5029670;28;20209;-54
2024/02/14 04:52:26;;;;;;;2.00;1.80;;;;;;;;;;5033991;28;20251;-54
2024/02/14 04:54:52;;;;;;;1.80;1.70;;;;;;;;;;5032712;28;20264;-54
2024/02/14 04:57:19;;;;;;;2.13;1.93;;;;;;;;;;5033701;28;20177;-54
2024/02/14 04:59:46;;;;;;;3.60;1.90;;;;;;;;;;5031773;28;20194;-55
2024/02/14 05:02:12;;;;;;;2.03;1.83;;;;;;;;;;5033454;28;20743;-55
2024/02/14 05:04:39;;;;;;;2.13;1.90;;;;;;;;;;5025739;28;20381;-55
2024/02/14 05:07:05;;;;;;;2.10;1.70;;;;;;;;;;5026231;28;20205;-55
2024/02/14 05:09:31;;;;;;;2.00;1.80;;;;;;;;;;5033262;28;20526;-54
2024/02/14 05:11:57;;;;;;;3.27;2.10;;;;;;;;;;5032274;28;21308;-54
2024/02/14 05:14:23;;;;;;;3.20;1.80;;;;;;;;;;5027340;28;20192;-54
2024/02/14 05:16:49;;;;;;;1.60;1.50;;;;;;;;;;5033187;28;20185;-54
2024/02/14 05:19:15;;;;;;;1.70;1.60;;;;;;;;;;5022674;28;20772;-54
2024/02/14 05:21:42;;;;;;;2.80;1.60;;;;;;;;;;5030397;28;20557;-54
2024/02/14 05:24:08;;;;;;;2.60;2.00;;;;;;;;;;5023814;28;20560;-54
2024/02/14 05:26:34;;;;;;;3.57;2.10;;;;;;;;;;5029697;28;20216;-54
2024/02/14 05:29:00;;;;;;;2.17;1.70;;;;;;;;;;5028318;28;20295;-54
2024/02/14 05:31:31;;;;;;;2.23;2.03;;;;;;;;;;5028837;28;20201;-55
2024/02/14 05:33:57;;;;;;;2.87;2.10;;;;;;;;;;5032255;28;20281;-54
2024/02/14 05:36:25;;;;;;;2.10;1.90;;;;;;;;;;5033138;28;20265;-54
2024/02/14 05:38:52;;;;;;;1.77;1.67;;;;;;;;;;5021937;28;20481;-54
2024/02/14 05:41:18;;;;;;;2.60;1.97;;;;;;;;;;5026960;28;20247;-55
2024/02/14 05:43:44;;;;;;;3.37;2.07;;;;;;;;;;5033386;28;20676;-54
2024/02/14 05:46:10;;;;;;;2.30;2.00;;;;;;;;;;5023883;28;20642;-55
2024/02/14 05:48:36;;;;;;;2.33;1.83;;;;;;;;;;5025362;28;20181;-54
2024/02/14 05:51:02;;;;;;;1.77;1.67;;;;;;;;;;5019190;28;20236;-54
2024/02/14 05:53:28;;;;;;;2.17;1.90;;;;;;;;;;5026205;28;20182;-55
2024/02/14 05:55:54;;;;;;;1.97;1.70;;;;;;;;;;5023650;28;20800;-55
2024/02/14 05:58:20;;;;;;;3.23;1.87;;;;;;;;;;5027246;28;20177;-54
2024/02/14 06:00:46;;;;;;;2.07;1.87;;;;;;;;;;5018382;28;20619;-54
2024/02/14 06:03:12;;;;;;;4.80;2.30;;;;;;;;;;5020310;28;20276;-55
2024/02/14 06:05:38;;;;;;;4.03;2.23;;;;;;;;;;5021032;28;20591;-55
2024/02/14 06:08:04;;;;;;;3.43;2.43;;;;;;;;;;5018331;28;20179;-55
2024/02/14 06:10:30;;;;;;;3.03;1.87;;;;;;;;;;5018277;28;20177;-55
2024/02/14 06:12:56;;;;;;;2.50;2.30;;;;;;;;;;5013647;28;20217;-54
2024/02/14 06:15:22;;;;;;;1.90;1.80;;;;;;;;;;5024847;28;20193;-54
2024/02/14 06:17:48;;;;;;;2.00;1.80;;;;;;;;;;5018809;28;20193;-55
2024/02/14 06:20:14;;;;;;;1.90;1.80;;;;;;;;;;5027244;28;20243;-54
2024/02/14 06:22:40;;;;;;;3.43;2.00;;;;;;;;;;5026699;28;20255;-55
2024/02/14 06:25:07;;;;;;;2.67;2.13;;;;;;;;;;5018376;28;20179;-55
2024/02/14 06:27:33;;;;;;;5.50;2.67;;;;;;;;;;5027359;28;20178;-54
2024/02/14 06:29:59;;;;;;;4.10;2.67;;;;;;;;;;5015873;28;20190;-54
2024/02/14 06:32:25;;;;;;;4.60;2.40;;;;;;;;;;5017564;28;20233;-54
2024/02/14 06:34:51;;;;;;;3.93;2.63;;;;;;;;;;5026771;28;20273;-55
2024/02/14 06:37:17;;;;;;;3.27;2.30;;;;;;;;;;5026993;28;20261;-54
2024/02/14 06:39:43;;;;;;;2.60;2.40;;;;;;;;;;5027217;28;20594;-54
2024/02/14 06:42:09;;;;;;;2.37;2.17;;;;;;;;;;5026019;28;20201;-54
2024/02/14 06:44:35;;;;;;;2.83;2.40;;;;;;;;;;5026128;28;20238;-55
2024/02/14 06:47:01;;;;;;;2.73;2.43;;;;;;;;;;5023561;28;20703;-52
2024/02/14 06:49:28;;;;;;;2.40;2.20;;;;;;;;;;5020238;28;20178;-54
2024/02/14 06:51:54;;;;;;;4.20;2.80;;;;;;;;;;5027183;28;20208;-54
2024/02/14 06:54:20;;;;;;;3.87;2.43;;;;;;;;;;5025508;28;20169;-54
2024/02/14 06:56:46;;;;;;;2.57;2.30;;;;;;;;;;5017650;28;20642;-55
2024/02/14 06:59:12;;;;;;;2.60;2.03;;;;;;;;;;5019404;28;20748;-55
2024/02/14 07:01:38;;;;;;;2.47;2.27;;;;;;;;;;5025285;28;20205;-55
2024/02/14 07:04:04;;;;;;;4.70;2.70;;;;;;;;;;5018843;28;20527;-54
2024/02/14 07:06:30;;;;;;;2.77;2.57;;;;;;;;;;5025754;28;20269;-54
2024/02/14 07:08:57;;;;;;;2.43;2.23;;;;;;;;;;5017628;28;20319;-54
2024/02/14 07:11:24;;;;;;;2.77;2.17;;;;;;;;;;5020451;28;20231;-55
2024/02/14 07:13:50;;;;;;;2.50;2.30;;;;;;;;;;5021462;28;20178;-55
2024/02/14 07:16:16;;;;;;;2.57;2.33;;;;;;;;;;5023590;28;20186;-55
2024/02/14 07:18:42;;;;;;;3.50;2.60;;;;;;;;;;5020185;28;20216;-54
2024/02/14 07:21:08;;;;;;;3.00;2.70;;;;;;;;;;5022557;28;20228;-54
2024/02/14 07:23:34;;;;;;;2.47;2.27;;;;;;;;;;5019105;28;20264;-55
2024/02/14 07:26:01;;;;;;;3.10;2.60;;;;;;;;;;5019734;28;20198;-55
2024/02/14 07:28:27;;;;;;;2.33;2.13;;;;;;;;;;5018561;28;20521;-55
2024/02/14 07:30:53;;;;;;;2.27;2.07;;;;;;;;;;5022057;28;20193;-54
2024/02/14 07:33:19;;;;;;;2.50;2.30;;;;;;;;;;5024066;28;20170;-55
2024/02/14 07:35:47;;;;;;;2.67;2.17;;;;;;;;;;5022583;28;20193;-54
2024/02/14 07:38:13;;;;;;;3.63;2.60;;;;;;;;;;5021560;28;20216;-55
2024/02/14 07:40:39;;;;;;;2.90;2.70;;;;;;;;;;5023438;28;20625;-54
2024/02/14 07:43:07;;;;;;;2.60;2.40;;;;;;;;;;5020272;28;20198;-55
2024/02/14 07:45:33;;;;;;;2.50;2.30;;;;;;;;;;5026015;28;20181;-55
2024/02/14 07:47:59;;;;;;;2.80;2.33;;;;;;;;;;5024148;28;20163;-54
2024/02/14 07:50:27;;;;;;;4.27;2.83;;;;;;;;;;5023466;28;20642;-55
2024/02/14 07:52:53;;;;;;;2.93;2.60;;;;;;;;;;5020855;28;20531;-54
2024/02/14 07:55:19;;;;;;;2.80;2.60;;;;;;;;;;5017862;28;20627;-55
2024/02/14 07:57:45;;;;;;;3.70;2.73;;;;;;;;;;5018188;28;20174;-59
2024/02/14 08:00:12;;;;;;;2.73;2.50;;;;;;;;;;5015607;28;20173;-58
2024/02/14 08:02:38;;;;;;;4.83;2.90;;;;;;;;;;5023375;28;20205;-60
2024/02/14 08:05:08;;;;;;;3.10;2.40;;;;;;;;;;5025370;28;20217;-57
2024/02/14 08:07:34;;;;;;;3.60;2.50;;;;;;;;;;5018043;28;20276;-60
2024/02/14 08:10:00;;;;;;;2.70;2.30;;;;;;;;;;5017080;28;20190;-58
2024/02/14 08:12:26;;;;;;;3.47;2.63;;;;;;;;;;5023141;28;20351;-60
2024/02/14 08:14:52;;;;;;;2.70;2.50;;;;;;;;;;5014253;28;20213;-59
2024/02/14 08:17:18;;;;;;;2.93;2.30;;;;;;;;;;5023810;28;20176;-59
2024/02/14 08:19:44;;;;;;;3.63;2.30;;;;;;;;;;5009157;28;20214;-59
2024/02/14 08:22:12;;;;;;;3.90;2.30;;;;;;;;;;5014181;28;20189;-60
2024/02/14 08:24:38;;;;;;;5.23;2.90;;;;;;;;;;5021372;28;20454;-59
2024/02/14 08:27:07;;;;;;;3.73;2.40;;;;;;;;;;5019540;28;20290;-55
2024/02/14 08:29:33;;;;;;;3.40;2.53;;;;;;;;;;5019363;28;20174;-60
2024/02/14 08:31:59;;;;;;;2.97;2.33;;;;;;;;;;5020991;28;20672;-59
2024/02/14 08:34:26;;;;;;;3.93;2.73;;;;;;;;;;5019033;28;20188;-60
2024/02/14 08:36:53;;;;;;;3.70;2.57;;;;;;;;;;5016650;28;20193;-58
2024/02/14 08:39:19;;;;;;;2.40;2.20;;;;;;;;;;5015886;28;20178;-59
2024/02/14 08:41:46;;;;;;;2.77;2.57;;;;;;;;;;5015963;28;20196;-59
2024/02/14 08:44:13;;;;;;;4.97;2.57;;;;;;;;;;5020032;28;20182;-60
2024/02/14 08:46:39;;;;;;;2.80;2.20;;;;;;;;;;5019769;28;20170;-59
2024/02/14 08:49:08;;;;;;;3.23;2.40;;;;;;;;;;5021917;28;20185;-59
2024/02/14 08:51:34;;;;;;;3.00;2.20;;;;;;;;;;5022377;28;20247;-60
2024/02/14 08:54:04;;;;;;;2.00;1.90;;;;;;;;;;5026806;28;20210;-59
2024/02/14 08:56:32;;;;;;;4.20;2.50;;;;;;;;;;5024324;28;20245;-60
2024/02/14 08:58:58;;;;;;;2.67;2.40;;;;;;;;;;5027849;28;20236;-60
2024/02/14 09:01:26;;;;;;;2.00;1.90;;;;;;;;;;5018744;28;20182;-59
2024/02/14 09:03:52;;;;;;;4.23;2.10;;;;;;;;;;5017490;28;20269;-59
2024/02/14 09:06:18;;;;;;;3.30;2.40;;;;;;;;;;5020272;28;20625;-60
2024/02/14 09:08:44;;;;;;;3.17;2.10;;;;;;;;;;5016861;28;20170;-51
2024/02/14 09:11:12;;;;;;;4.03;2.53;;;;;;;;;;5018690;28;20183;-52
2024/02/14 09:13:40;;;;;;;4.23;2.10;;;;;;;;;;5016801;28;20197;-53
2024/02/14 09:16:06;;;;;;;2.63;2.23;;;;;;;;;;5022756;28;20181;-52
2024/02/14 09:18:32;;;;;;;2.00;1.90;;;;;;;;;;5023922;28;20214;-52
2024/02/14 09:20:58;;;;;;;3.40;2.47;;;;;;;;;;5021051;28;20255;-53
2024/02/14 09:23:24;;;;;;;3.73;2.17;;;;;;;;;;5025849;28;20186;-53
2024/02/14 09:25:51;;;;;;;2.57;2.30;;;;;;;;;;5028791;28;20209;-51
2024/02/14 09:28:17;;;;;;;2.17;2.07;;;;;;;;;;5028672;28;20182;-51
2024/02/14 09:30:43;;;;;;;3.67;2.20;;;;;;;;;;5029300;28;20170;-55
2024/02/14 09:33:09;;;;;;;2.90;2.03;;;;;;;;;;5027053;28;20202;-52
2024/02/14 09:35:37;;;;;;;2.67;2.30;;;;;;;;;;5027811;28;20283;-53
2024/02/14 09:38:03;;;;;;;2.20;1.97;;;;;;;;;;5024084;28;20175;-54
2024/02/14 09:40:30;;;;;;;2.40;2.20;;;;;;;;;;5027576;28;20261;-54
2024/02/14 09:42:58;;;;;;;4.20;2.40;;;;;;;;;;5028168;28;20205;-53
2024/02/14 09:45:27;;;;;;;2.23;1.90;;;;;;;;;;5028451;28;20478;-54
2024/02/14 09:47:57;;;;;;;2.67;2.00;;;;;;;;;;5025565;28;20182;-53
2024/02/14 09:50:24;;;;;;;2.50;2.30;;;;;;;;;;5027135;28;20181;-51
2024/02/14 09:52:50;;;;;;;3.73;2.40;;;;;;;;;;5028099;28;20770;-51
2024/02/14 09:55:16;;;;;;;2.63;2.13;;;;;;;;;;5027398;28;20619;-52
2024/02/14 09:57:43;;;;;;;4.00;2.33;;;;;;;;;;5028694;28;20194;-52
2024/02/14 10:00:14;;;;;;;3.23;2.40;;;;;;;;;;5027824;28;20170;-52
2024/02/14 10:02:41;;;;;;;2.47;1.67;;;;;;;;;;5025144;28;20597;-51
2024/02/14 10:05:07;;;;;;;2.33;2.13;;;;;;;;;;5026597;28;20177;-54
2024/02/14 10:07:40;;;;;;;3.33;2.13;;;;;;;;;;5027809;28;20185;-53
2024/02/14 10:10:09;;;;;;;3.03;2.20;;;;;;;;;;5026970;28;20276;-53
2024/02/14 10:12:35;;;;;;;3.00;1.97;;;;;;;;;;5027245;28;20251;-51
2024/02/14 10:15:02;;;;;;;2.80;1.93;;;;;;;;;;5028688;28;20198;-50
2024/02/14 10:17:28;;;;;;;3.03;1.93;;;;;;;;;;5027099;28;20583;-54
2024/02/14 10:19:58;;;;;;;5.63;2.13;;;;;;;;;;5026590;28;20220;-60
2024/02/14 10:22:26;;;;;;;2.70;2.00;;;;;;;;;;5025106;28;20224;-60
2024/02/14 10:24:52;;;;;;;4.20;1.97;;;;;;;;;;5026639;28;20312;-61
2024/02/14 10:27:19;;;;;;;2.60;2.00;;;;;;;;;;5026794;28;20641;-60
2024/02/14 10:29:45;;;;;;;4.13;2.27;;;;;;;;;;5026612;28;20261;-62
2024/02/14 10:32:15;;;;;;;2.53;1.63;;;;;;;;;;5025331;28;20206;-61
2024/02/14 10:34:41;;;;;;;2.93;1.93;;;;;;;;;;5023313;28;20540;-61
2024/02/14 10:37:08;;;;;;;2.27;1.77;;;;;;;;;;5023588;28;20232;-61
2024/02/14 10:39:36;;;;;;;3.40;1.93;;;;;;;;;;5025241;28;20261;-60
2024/02/14 10:42:03;;;;;;;4.33;2.27;;;;;;;;;;5026785;28;20723;-60
2024/02/14 10:44:30;;;;;;;2.27;2.00;;;;;;;;;;5026369;28;20182;-59
2024/02/14 10:46:56;;;;;;;3.27;1.77;;;;;;;;;;5028770;28;20185;-59
2024/02/14 10:49:24;;;;;;;2.93;1.83;;;;;;;;;;5027218;28;20181;-60
2024/02/14 10:51:53;;;;;;;2.87;1.80;;;;;;;;;;5026933;28;20229;-59
2024/02/14 10:54:20;;;;;;;2.50;1.87;;;;;;;;;;5025924;28;20486;-60
2024/02/14 10:56:51;;;;;;;1.97;1.77;;;;;;;;;;5025801;28;20605;-60
2024/02/14 10:59:19;;;;;;;3.47;1.53;;;;;;;;;;5022440;28;20483;-61
2024/02/14 11:01:45;;;;;;;1.87;1.77;;;;;;;;;;5025044;28;20181;-61
2024/02/14 11:04:12;;;;;;;2.60;1.73;;;;;;;;;;5024071;28;20178;-60
2024/02/14 11:06:46;;;;;;;3.83;1.90;;;;;;;;;;5025179;28;20177;-60
2024/02/14 11:09:12;;;;;;;3.30;2.03;;;;;;;;;;5022026;28;20193;-59
2024/02/14 11:11:39;;;;;;;2.07;1.23;;;;;;;;;;5027546;28;20241;-61
2024/02/14 11:14:06;;;;;;;3.73;1.97;;;;;;;;;;5027170;28;20170;-57
2024/02/14 11:16:33;;;;;;;2.23;1.87;;;;;;;;;;5024766;28;20428;-58
2024/02/14 11:19:08;;;;;;;5.53;2.10;;;;;;;;;;5023284;28;20618;-60
2024/02/14 11:21:42;;;;;;;2.90;1.80;;;;;;;;;;5022442;28;20296;-59
2024/02/14 11:24:08;;;;;;;4.07;1.90;;;;;;;;;;5022447;28;20215;-62
2024/02/14 11:26:41;;;;;;;1.93;1.70;;;;;;;;;;5024136;28;20495;-60
2024/02/14 11:29:07;;;;;;;2.63;1.77;;;;;;;;;;5027861;28;20677;-55
2024/02/14 11:31:37;;;;;;;1.70;1.60;;;;;;;;;;5027048;28;20212;-55
2024/02/14 11:34:04;;;;;;;2.30;2.10;;;;;;;;;;5028604;28;20178;-55
2024/02/14 11:36:32;;;;;;;8.87;2.33;;;;;;;;;;5029058;28;20212;-55
2024/02/14 11:38:59;;;;;;;1.83;1.73;;;;;;;;;;5027414;28;20189;-54
2024/02/14 11:41:24;;;;;;;4.37;2.80;;;;;;;;;;5028923;28;20178;-55
2024/02/14 11:43:53;;;;;;;1.80;1.40;;;;;;;;;;5027384;28;20201;-55
2024/02/14 11:46:20;;;;;;;2.13;1.73;;;;;;;;;;5028976;28;20177;-55
2024/02/14 11:48:46;;;;;;;2.53;1.43;;;;;;;;;;5028635;28;20706;-55
2024/02/14 11:51:12;;;;;;;2.00;1.40;;;;;;;;;;5028583;28;20181;-55
2024/02/14 11:53:40;;;;;;;1.73;1.53;;;;;;;;;;5021259;28;20197;-55
2024/02/14 11:56:07;;;;;;;3.40;1.60;;;;;;;;;;5025052;28;20622;-55
2024/02/14 11:58:34;;;;;;;6.00;1.93;;;;;;;;;;5025507;28;20775;-55
2024/02/14 12:01:05;;;;;;;2.73;1.57;;;;;;;;;;5025562;28;20204;-55
2024/02/14 12:03:31;;;;;;;1.93;1.50;;;;;;;;;;5023460;28;20600;-55
2024/02/14 12:05:57;;;;;;;2.13;1.50;;;;;;;;;;5024856;28;20174;-55
2024/02/14 12:08:23;;;;;;;1.90;1.47;;;;;;;;;;5023564;28;20181;-55
2024/02/14 12:10:49;;;;;;;1.80;1.70;;;;;;;;;;5025069;28;20205;-55
2024/02/14 12:13:16;;;;;;;4.43;1.57;;;;;;;;;;5023926;28;20233;-55
2024/02/14 12:15:45;;;;;;;2.20;1.60;;;;;;;;;;5025756;28;20202;-54
2024/02/14 12:18:11;;;;;;;2.10;1.60;;;;;;;;;;5021477;28;20221;-55
2024/02/14 12:20:42;;;;;;;1.47;1.30;;;;;;;;;;5027123;28;20174;-55
2024/02/14 12:23:08;;;;;;;2.90;1.43;;;;;;;;;;5024805;28;20182;-55
2024/02/14 12:25:34;;;;;;;1.87;1.40;;;;;;;;;;5024826;28;20240;-55
2024/02/14 12:28:01;;;;;;;2.37;1.60;;;;;;;;;;5025331;28;20488;-55
2024/02/14 12:30:46;;;;;;;1.50;1.40;;;;;;;;;;5025168;28;20293;-55
2024/02/14 12:33:12;;;;;;;2.30;1.47;;;;;;;;;;5023399;28;20344;-56
2024/02/14 12:35:42;;;;;;;1.57;1.47;;;;;;;;;;5026000;28;20174;-55
2024/02/14 12:38:12;;;;;;;4.10;1.43;;;;;;;;;;5024042;28;20220;-55
2024/02/14 12:40:38;;;;;;;2.60;1.63;;;;;;;;;;5025127;28;20491;-61
2024/02/14 12:43:05;;;;;;;1.73;1.60;;;;;;;;;;5025263;28;20252;-59
2024/02/14 12:45:31;;;;;;;2.00;1.40;;;;;;;;;;5025618;28;20205;-60
2024/02/14 12:47:57;;;;;;;2.40;1.60;;;;;;;;;;5020518;28;20530;-59
2024/02/14 12:50:23;;;;;;;1.57;1.30;;;;;;;;;;5017073;28;20611;-59
2024/02/14 12:52:50;;;;;;;2.57;1.70;;;;;;;;;;5025644;28;20213;-61
2024/02/14 12:55:16;;;;;;;1.33;1.23;;;;;;;;;;5025082;28;20203;-61
2024/02/14 12:57:42;;;;;;;3.80;1.57;;;;;;;;;;5022518;28;20162;-61
2024/02/14 13:00:11;;;;;;;1.63;1.40;;;;;;;;;;5024883;28;20518;-61
2024/02/14 13:02:40;;;;;;;1.20;1.10;;;;;;;;;;5020213;28;20188;-61
2024/02/14 13:05:06;;;;;;;1.60;1.50;;;;;;;;;;5028494;28;21097;-59
2024/02/14 13:07:33;;;;;;;3.13;1.80;;;;;;;;;;5028020;28;20654;-61
2024/02/14 13:09:59;;;;;;;2.60;1.50;;;;;;;;;;5027704;28;20214;-62
2024/02/14 13:12:25;;;;;;;1.43;1.30;;;;;;;;;;5029074;28;20264;-62
2024/02/14 13:14:51;;;;;;;2.60;1.27;;;;;;;;;;5028006;28;20645;-62
2024/02/14 13:17:17;;;;;;;2.00;1.60;;;;;;;;;;5028301;28;20189;-60
2024/02/14 13:19:43;;;;;;;1.90;1.40;;;;;;;;;;5028214;28;20300;-61
2024/02/14 13:22:10;;;;;;;3.00;1.43;;;;;;;;;;5029442;28;20174;-54
2024/02/14 13:24:36;;;;;;;2.20;1.27;;;;;;;;;;5024452;28;20583;-53
2024/02/14 13:27:02;;;;;;;1.67;1.40;;;;;;;;;;5026676;28;20269;-54
2024/02/14 13:29:29;;;;;;;1.30;1.20;;;;;;;;;;5024686;28;20280;-53
2024/02/14 13:31:55;;;;;;;1.43;1.30;;;;;;;;;;5028068;28;20189;-52
2024/02/14 13:34:21;;;;;;;1.77;1.50;;;;;;;;;;5026705;28;20243;-55
2024/02/14 13:36:47;;;;;;;2.70;1.13;;;;;;;;;;5027705;28;20228;-54
2024/02/14 13:39:13;;;;;;;1.30;1.20;;;;;;;;;;5026279;28;20205;-53
2024/02/14 13:41:40;;;;;;;1.87;1.37;;;;;;;;;;5027812;28;20508;-51
2024/02/14 13:44:09;;;;;;;1.73;1.50;;;;;;;;;;5028486;28;20564;-53
2024/02/14 13:46:35;;;;;;;1.83;1.40;;;;;;;;;;5026884;28;20272;-53
2024/02/14 13:49:01;;;;;;;1.73;1.50;;;;;;;;;;5026804;28;20169;-61
2024/02/14 13:51:27;;;;;;;1.30;1.20;;;;;;;;;;5029379;28;20458;-60
2024/02/14 13:53:54;;;;;;;1.73;1.30;;;;;;;;;;5026627;28;20558;-60
2024/02/14 13:56:24;;;;;;;1.47;1.30;;;;;;;;;;5028043;28;20209;-60
2024/02/14 13:58:50;;;;;;;2.23;1.03;;;;;;;;;;5028846;28;20567;-61
2024/02/14 14:01:17;;;;;;;1.37;1.27;;;;;;;;;;5029413;28;20186;-61
2024/02/14 14:03:43;;;;;;;1.80;1.10;;;;;;;;;;5026549;28;20588;-60
2024/02/14 14:06:09;;;;;;;1.93;1.73;;;;;;;;;;5028591;28;20228;-60
2024/02/14 14:08:36;;;;;;;1.40;1.30;;;;;;;;;;5029781;28;20228;-60
2024/02/14 14:11:05;;;;;;;3.20;1.20;;;;;;;;;;5020566;28;20194;-60
2024/02/14 14:13:33;;;;;;;1.40;1.30;;;;;;;;;;5015267;28;20305;-59
2024/02/14 14:15:59;;;;;;;1.30;1.27;;;;;;;;;;5017116;28;20296;-59
2024/02/14 14:18:25;;;;;;;2.23;1.57;;;;;;;;;;5021204;28;20257;-60
2024/02/14 14:20:52;;;;;;;2.33;1.20;;;;;;;;;;5024088;28;20188;-60
2024/02/14 14:23:18;;;;;;;1.67;1.57;;;;;;;;;;5021971;28;20201;-59
2024/02/14 14:25:44;;;;;;;1.73;1.30;;;;;;;;;;5015427;28;20182;-59
2024/02/14 14:28:11;;;;;;;1.57;1.43;;;;;;;;;;5023587;28;20232;-59
2024/02/14 14:30:38;;;;;;;1.73;1.20;;;;;;;;;;5023750;28;20192;-60
2024/02/14 14:33:04;;;;;;;2.60;1.20;;;;;;;;;;5027671;28;20190;-61
2024/02/14 14:35:33;;;;;;;2.83;1.40;;;;;;;;;;5029187;28;20167;-61
2024/02/14 14:38:00;;;;;;;1.30;1.20;;;;;;;;;;5028651;28;20181;-58
2024/02/14 14:40:26;;;;;;;3.43;1.20;;;;;;;;;;5022442;28;20163;-60